Time;durP1;ratioP1;P1;durP2;ratioP2;P2;SDS_P1;SDS_P2;PMS_P1;PMS_P2;Temp;Humidity;BMP_temperature;BMP_pressure;BME280_temperature;BME280_humidity;BME280_pressure;Samples;Min_cycle;Max_cycle;Signal;HPM_P1;HPM_P2
2023/01/17 00:01:08;;;;;;;13.35;7.45;;;;;;;;;;5009545;28;20648;-71
2023/01/17 00:09:51;;;;;;;14.20;7.50;;;;;;;;;;5017920;28;20045;-71
2023/01/17 00:11:55;;;;;;;15.27;7.63;;;;;;;;;;5023243;28;20052;-70
2023/01/17 00:14:21;;;;;;;14.88;7.70;;;;;;;;;;5038554;28;20053;-70
2023/01/17 00:16:47;;;;;;;13.70;7.47;;;;;;;;;;5024526;28;20551;-71
2023/01/17 01:35:57;;;;;;;17.13;8.57;;;;;;;;;;5022181;28;20084;-71
2023/01/17 01:38:22;;;;;;;13.63;7.77;;;;;;;;;;5022745;28;20026;-72
2023/01/17 01:40:49;;;;;;;16.90;8.38;;;;;;;;;;5014050;28;20354;-71
2023/01/17 01:43:15;;;;;;;13.80;7.93;;;;;;;;;;5022558;28;20025;-71
2023/01/17 01:45:43;;;;;;;14.55;8.10;;;;;;;;;;5029457;28;20029;-71
2023/01/17 01:48:29;;;;;;;14.43;7.60;;;;;;;;;;5022124;28;20037;-71
2023/01/17 01:50:54;;;;;;;12.68;7.25;;;;;;;;;;5024430;28;20562;-71
2023/01/17 01:53:20;;;;;;;14.25;8.05;;;;;;;;;;5028069;28;20033;-70
2023/01/17 01:55:47;;;;;;;13.77;8.02;;;;;;;;;;5024560;28;20095;-70
2023/01/17 01:58:15;;;;;;;14.13;7.90;;;;;;;;;;5021081;28;20109;-70
2023/01/17 02:00:41;;;;;;;17.23;8.52;;;;;;;;;;5024291;28;20038;-70
2023/01/17 02:03:11;;;;;;;14.02;8.05;;;;;;;;;;5024324;28;22063;-71
2023/01/17 02:05:36;;;;;;;14.88;7.95;;;;;;;;;;5027039;28;20022;-71
2023/01/17 02:08:03;;;;;;;15.50;8.20;;;;;;;;;;5023433;28;20029;-71
2023/01/17 02:10:32;;;;;;;17.40;8.30;;;;;;;;;;5024776;28;20079;-70
2023/01/17 02:12:58;;;;;;;15.88;7.90;;;;;;;;;;5025148;28;20109;-70
2023/01/17 02:15:28;;;;;;;13.77;7.85;;;;;;;;;;5025362;28;20025;-71
2023/01/17 02:17:53;;;;;;;12.82;7.63;;;;;;;;;;5040980;28;20108;-71
2023/01/17 02:20:37;;;;;;;16.73;8.37;;;;;;;;;;5030472;28;20025;-71
2023/01/17 02:23:19;;;;;;;15.52;8.40;;;;;;;;;;5027472;28;20030;-72
2023/01/17 02:25:44;;;;;;;15.90;7.47;;;;;;;;;;5030335;28;20039;-71
2023/01/17 02:28:28;;;;;;;14.37;8.80;;;;;;;;;;5032759;28;20034;-71
2023/01/17 02:30:55;;;;;;;15.60;7.55;;;;;;;;;;5029949;28;20108;-71
2023/01/17 02:33:27;;;;;;;12.82;7.40;;;;;;;;;;5012072;28;20021;-70
2023/01/17 02:36:09;;;;;;;13.85;7.43;;;;;;;;;;5032549;28;20533;-71
2023/01/17 02:38:35;;;;;;;11.20;6.75;;;;;;;;;;5025804;28;20033;-71
2023/01/17 02:41:02;;;;;;;11.90;6.73;;;;;;;;;;5032387;28;20044;-71
2023/01/17 02:43:28;;;;;;;11.82;6.20;;;;;;;;;;5024612;28;20177;-70
2023/01/17 02:45:53;;;;;;;10.98;6.13;;;;;;;;;;5029076;28;20136;-72
2023/01/17 02:48:21;;;;;;;10.40;6.00;;;;;;;;;;5025349;28;20037;-72
2023/01/17 02:51:12;;;;;;;11.23;6.88;;;;;;;;;;5030177;28;20038;-72
2023/01/17 02:54:07;;;;;;;10.18;5.93;;;;;;;;;;5026587;28;20037;-71
2023/01/17 02:56:48;;;;;;;9.82;5.80;;;;;;;;;;5021141;28;20545;-72
2023/01/17 02:59:13;;;;;;;9.07;5.55;;;;;;;;;;5028954;28;20032;-71
2023/01/17 03:01:38;;;;;;;9.17;5.43;;;;;;;;;;5041239;28;20040;-70
2023/01/17 03:04:10;;;;;;;9.23;5.67;;;;;;;;;;5038014;28;20029;-70
2023/01/17 03:06:38;;;;;;;8.02;5.20;;;;;;;;;;5026784;28;20417;-71
2023/01/17 03:09:04;;;;;;;9.10;5.20;;;;;;;;;;5024140;28;20021;-73
2023/01/17 03:11:30;;;;;;;8.80;4.70;;;;;;;;;;5026312;28;20045;-72
2023/01/17 03:13:56;;;;;;;7.35;4.32;;;;;;;;;;5024633;28;20498;-72
2023/01/17 03:16:22;;;;;;;6.40;3.85;;;;;;;;;;5010798;28;20480;-72
2023/01/17 03:18:48;;;;;;;5.32;3.45;;;;;;;;;;5022252;28;20030;-72
2023/01/17 03:21:13;;;;;;;5.65;3.05;;;;;;;;;;5038770;28;20076;-71
2023/01/17 03:23:38;;;;;;;7.22;3.47;;;;;;;;;;5026884;28;20470;-71
2023/01/17 03:26:04;;;;;;;7.27;3.33;;;;;;;;;;5023884;28;20026;-71
2023/01/17 03:28:29;;;;;;;4.95;3.17;;;;;;;;;;5022067;28;20049;-72
2023/01/17 03:30:54;;;;;;;5.23;2.80;;;;;;;;;;5025266;28;20022;-71
2023/01/17 03:33:19;;;;;;;4.13;2.83;;;;;;;;;;5029105;28;20271;-71
2023/01/17 03:35:45;;;;;;;4.50;2.95;;;;;;;;;;5020119;28;20026;-70
2023/01/17 03:38:10;;;;;;;5.10;3.03;;;;;;;;;;5026040;28;20095;-73
2023/01/17 03:40:35;;;;;;;4.28;2.80;;;;;;;;;;5022336;28;20029;-72
2023/01/17 03:43:00;;;;;;;3.80;2.53;;;;;;;;;;5023387;28;20064;-71
2023/01/17 03:45:26;;;;;;;4.10;2.77;;;;;;;;;;5037213;28;20285;-72
2023/01/17 03:47:52;;;;;;;4.38;2.60;;;;;;;;;;5025254;28;20344;-70
2023/01/17 03:50:18;;;;;;;3.47;2.13;;;;;;;;;;5027220;28;20037;-71
2023/01/17 03:52:43;;;;;;;3.88;2.72;;;;;;;;;;5027395;28;20075;-72
2023/01/17 03:55:08;;;;;;;4.40;2.70;;;;;;;;;;5019715;28;20387;-71
2023/01/17 03:57:34;;;;;;;4.68;2.72;;;;;;;;;;5037046;28;20373;-70
2023/01/17 03:59:59;;;;;;;4.03;2.80;;;;;;;;;;5035558;28;20037;-71
2023/01/17 04:02:24;;;;;;;3.60;2.40;;;;;;;;;;5023813;28;20624;-72
2023/01/17 04:04:50;;;;;;;5.85;3.30;;;;;;;;;;5021298;28;20411;-71
2023/01/17 04:07:15;;;;;;;5.30;3.13;;;;;;;;;;5025781;28;20029;-71
2023/01/17 04:09:40;;;;;;;5.97;3.03;;;;;;;;;;5022428;28;20399;-71
2023/01/17 04:12:06;;;;;;;4.40;2.90;;;;;;;;;;5022506;28;20089;-71
2023/01/17 04:14:31;;;;;;;6.32;3.45;;;;;;;;;;5023991;28;20030;-72
2023/01/17 04:16:56;;;;;;;4.53;2.92;;;;;;;;;;5006177;28;20116;-72
2023/01/17 04:19:21;;;;;;;5.93;3.88;;;;;;;;;;5026736;28;20185;-71
2023/01/17 04:21:47;;;;;;;5.33;3.30;;;;;;;;;;5029763;28;20185;-72
2023/01/17 04:24:12;;;;;;;6.05;3.38;;;;;;;;;;5025346;28;20087;-72
2023/01/17 04:26:37;;;;;;;4.37;3.10;;;;;;;;;;5025265;28;20033;-71
2023/01/17 04:29:03;;;;;;;6.67;3.60;;;;;;;;;;5026000;28;20300;-71
2023/01/17 04:31:28;;;;;;;4.68;3.30;;;;;;;;;;5011915;28;20293;-72
2023/01/17 04:33:53;;;;;;;5.55;3.38;;;;;;;;;;5017892;28;20038;-71
2023/01/17 04:36:18;;;;;;;6.13;3.90;;;;;;;;;;5007325;28;20051;-71
2023/01/17 04:38:44;;;;;;;6.50;3.80;;;;;;;;;;5011427;28;20095;-71
2023/01/17 04:41:09;;;;;;;6.97;3.83;;;;;;;;;;5040886;28;20792;-70
2023/01/17 04:43:34;;;;;;;6.97;3.80;;;;;;;;;;5039875;28;20744;-70
2023/01/17 04:46:00;;;;;;;6.57;3.97;;;;;;;;;;5020853;28;20373;-72
2023/01/17 04:48:26;;;;;;;7.90;3.70;;;;;;;;;;5023411;28;20703;-72
2023/01/17 04:50:57;;;;;;;6.72;3.80;;;;;;;;;;5022151;28;20030;-72
2023/01/17 04:53:22;;;;;;;7.57;4.13;;;;;;;;;;5040762;28;20025;-73
2023/01/17 04:55:47;;;;;;;9.20;3.87;;;;;;;;;;5007365;28;20472;-74
2023/01/17 04:58:13;;;;;;;6.50;3.20;;;;;;;;;;5020975;28;20060;-74
2023/01/17 05:00:38;;;;;;;6.83;4.23;;;;;;;;;;5028770;28;20290;-73
2023/01/17 05:03:03;;;;;;;6.80;4.13;;;;;;;;;;5006156;28;20030;-74
2023/01/17 05:05:28;;;;;;;7.30;4.30;;;;;;;;;;5022373;28;20116;-74
2023/01/17 05:07:54;;;;;;;6.50;4.35;;;;;;;;;;5024472;28;20336;-74
2023/01/17 05:10:19;;;;;;;7.80;4.45;;;;;;;;;;5017656;28;20104;-73
2023/01/17 05:12:51;;;;;;;6.93;4.30;;;;;;;;;;5021169;28;20587;-75
2023/01/17 05:15:17;;;;;;;8.50;4.43;;;;;;;;;;5011793;28;20021;-74
2023/01/17 05:17:42;;;;;;;8.37;4.60;;;;;;;;;;5023652;28;20020;-74
2023/01/17 05:20:07;;;;;;;9.80;4.80;;;;;;;;;;5040722;28;20021;-74
2023/01/17 05:22:33;;;;;;;9.00;4.70;;;;;;;;;;5025710;28;20022;-74
2023/01/17 05:24:58;;;;;;;7.67;5.07;;;;;;;;;;5018454;28;20117;-73
2023/01/17 05:27:23;;;;;;;8.13;5.00;;;;;;;;;;5018811;28;20275;-73
2023/01/17 05:29:48;;;;;;;8.97;5.20;;;;;;;;;;5020005;28;20140;-74
2023/01/17 05:32:14;;;;;;;6.93;4.63;;;;;;;;;;5020686;28;20278;-71
2023/01/17 05:34:39;;;;;;;7.03;4.40;;;;;;;;;;5023420;28;20037;-70
2023/01/17 05:37:04;;;;;;;9.90;4.90;;;;;;;;;;5033578;28;20274;-70
2023/01/17 05:39:29;;;;;;;10.30;5.40;;;;;;;;;;5034724;28;20030;-69
2023/01/17 05:41:55;;;;;;;9.30;5.50;;;;;;;;;;5025077;28;20033;-69
2023/01/17 05:44:20;;;;;;;8.87;6.10;;;;;;;;;;5026291;28;20350;-70
2023/01/17 05:46:45;;;;;;;7.77;4.90;;;;;;;;;;5021608;28;20282;-70
2023/01/17 05:49:10;;;;;;;8.48;4.88;;;;;;;;;;5025658;28;20155;-70
2023/01/17 05:51:38;;;;;;;10.70;6.00;;;;;;;;;;5042842;28;20039;-71
2023/01/17 05:54:03;;;;;;;10.90;5.03;;;;;;;;;;5033864;28;20135;-71
2023/01/17 05:56:29;;;;;;;9.25;5.93;;;;;;;;;;5026159;28;20120;-71
2023/01/17 05:58:54;;;;;;;7.75;4.65;;;;;;;;;;5009020;28;20488;-74
2023/01/17 06:01:19;;;;;;;8.40;5.03;;;;;;;;;;5023500;28;20430;-74
2023/01/17 06:03:44;;;;;;;7.87;4.80;;;;;;;;;;5026178;28;20598;-74
2023/01/17 06:06:10;;;;;;;8.57;5.20;;;;;;;;;;5027337;28;20446;-74
2023/01/17 06:08:35;;;;;;;7.20;4.37;;;;;;;;;;5022309;28;20029;-75
2023/01/17 06:11:00;;;;;;;7.87;4.73;;;;;;;;;;5043214;28;20033;-75
2023/01/17 06:13:25;;;;;;;8.95;4.78;;;;;;;;;;5012663;28;20325;-74
2023/01/17 06:15:51;;;;;;;7.10;4.13;;;;;;;;;;5028304;28;20151;-75
2023/01/17 06:18:16;;;;;;;8.30;4.70;;;;;;;;;;5027745;28;20025;-75
2023/01/17 06:20:42;;;;;;;7.57;4.32;;;;;;;;;;5014343;28;20372;-74
2023/01/17 06:23:12;;;;;;;8.88;5.35;;;;;;;;;;5021525;28;20413;-75
2023/01/17 06:25:44;;;;;;;7.78;5.07;;;;;;;;;;5030823;28;20033;-75
2023/01/17 06:28:09;;;;;;;9.15;4.82;;;;;;;;;;5042714;28;20017;-75
2023/01/17 06:30:35;;;;;;;10.30;5.63;;;;;;;;;;5026871;28;20365;-73
2023/01/17 06:33:00;;;;;;;8.50;5.15;;;;;;;;;;5031645;28;20547;-75
2023/01/17 06:35:25;;;;;;;10.70;5.97;;;;;;;;;;5027888;28;20021;-74
2023/01/17 06:37:51;;;;;;;8.17;5.23;;;;;;;;;;5022780;28;20033;-75
2023/01/17 06:40:17;;;;;;;9.57;5.35;;;;;;;;;;5027915;28;20037;-74
2023/01/17 06:42:42;;;;;;;10.35;5.75;;;;;;;;;;5027817;28;20029;-74
2023/01/17 06:45:08;;;;;;;10.80;5.50;;;;;;;;;;5024185;28;20057;-74
2023/01/17 06:47:36;;;;;;;9.88;5.95;;;;;;;;;;5024103;28;20081;-70
2023/01/17 06:50:02;;;;;;;10.48;5.07;;;;;;;;;;5038945;28;20025;-71
2023/01/17 06:52:27;;;;;;;9.45;5.30;;;;;;;;;;5021290;28;20025;-70
2023/01/17 06:54:52;;;;;;;10.43;5.30;;;;;;;;;;5012645;28;20034;-71
2023/01/17 06:57:17;;;;;;;9.20;5.27;;;;;;;;;;5041853;28;20559;-71
2023/01/17 06:59:43;;;;;;;9.67;5.23;;;;;;;;;;5011730;28;20116;-71
2023/01/17 07:02:09;;;;;;;11.13;5.83;;;;;;;;;;5020075;28;20640;-71
2023/01/17 07:04:34;;;;;;;11.23;6.45;;;;;;;;;;4999371;28;20029;-71
2023/01/17 07:07:00;;;;;;;9.07;6.05;;;;;;;;;;5023426;28;20387;-71
2023/01/17 07:09:25;;;;;;;10.55;6.07;;;;;;;;;;5025955;28;20472;-71
2023/01/17 07:11:51;;;;;;;11.03;6.93;;;;;;;;;;5024344;28;20529;-71
2023/01/17 07:14:16;;;;;;;12.95;6.85;;;;;;;;;;5024369;28;20347;-71
2023/01/17 07:16:44;;;;;;;11.23;5.97;;;;;;;;;;5021811;28;20033;-70
2023/01/17 07:19:10;;;;;;;13.30;6.90;;;;;;;;;;5028230;28;20029;-75
2023/01/17 07:21:35;;;;;;;11.17;6.97;;;;;;;;;;5025994;28;20064;-74
2023/01/17 07:24:00;;;;;;;12.83;6.40;;;;;;;;;;5027712;28;20790;-72
2023/01/17 07:26:25;;;;;;;12.97;6.57;;;;;;;;;;5023255;28;20411;-70
2023/01/17 07:28:50;;;;;;;9.60;6.27;;;;;;;;;;5019993;28;20040;-71
2023/01/17 07:31:16;;;;;;;11.73;6.50;;;;;;;;;;5023642;28;20038;-71
2023/01/17 07:33:41;;;;;;;10.67;6.07;;;;;;;;;;5021895;28;20028;-71
2023/01/17 07:36:07;;;;;;;18.07;10.07;;;;;;;;;;5020629;28;20029;-71
2023/01/17 07:38:33;;;;;;;15.50;8.80;;;;;;;;;;5021324;28;20290;-75
2023/01/17 07:40:58;;;;;;;16.00;8.25;;;;;;;;;;5039271;28;20037;-76
2023/01/17 07:43:24;;;;;;;13.88;8.20;;;;;;;;;;5024403;28;20177;-75
2023/01/17 07:45:49;;;;;;;9.90;6.47;;;;;;;;;;5024360;28;20029;-75
2023/01/17 07:48:15;;;;;;;11.10;6.25;;;;;;;;;;5026741;28;20037;-70
2023/01/17 07:50:40;;;;;;;12.05;6.60;;;;;;;;;;5029220;28;20558;-71
2023/01/17 07:53:06;;;;;;;9.67;5.60;;;;;;;;;;5028479;28;20079;-71
2023/01/17 07:55:31;;;;;;;11.63;5.70;;;;;;;;;;5027385;28;20510;-71
2023/01/17 07:57:56;;;;;;;9.05;5.43;;;;;;;;;;5038323;28;20283;-71
2023/01/17 08:00:22;;;;;;;9.47;5.93;;;;;;;;;;5025438;28;20163;-72
2023/01/17 08:02:47;;;;;;;11.88;6.53;;;;;;;;;;5011706;28;20090;-76
2023/01/17 08:05:12;;;;;;;10.35;5.28;;;;;;;;;;5021854;28;20034;-76
2023/01/17 08:07:38;;;;;;;10.68;6.18;;;;;;;5.79;nan;98793.50;5014632;28;20095;-75
2023/01/17 08:10:03;;;;;;;10.60;5.97;;;;;;;;;;5017314;28;20029;-74
2023/01/17 08:12:28;;;;;;;8.52;5.93;;;;;;;;;;5017334;28;20049;-73
2023/01/17 08:14:54;;;;;;;10.57;5.93;;;;;;;;;;5017673;28;20026;-74
2023/01/17 08:17:20;;;;;;;11.35;6.07;;;;;;;;;;5020183;28;20040;-75
2023/01/17 08:19:45;;;;;;;9.30;5.63;;;;;;;;;;5020680;28;20040;-75
2023/01/17 08:22:11;;;;;;;10.55;5.80;;;;;;;;;;5025350;28;20464;-74
2023/01/17 08:24:36;;;;;;;10.93;6.03;;;;;;;;;;5014928;28;20391;-74
2023/01/17 08:27:02;;;;;;;10.73;5.80;;;;;;;;;;5011968;28;20037;-75
2023/01/17 08:29:28;;;;;;;11.35;6.20;;;;;;;;;;5018758;28;20032;-75
2023/01/17 08:31:53;;;;;;;10.63;5.80;;;;;;;;;;5027644;28;20476;-75
2023/01/17 08:34:18;;;;;;;8.57;5.17;;;;;;;;;;5021029;28;20022;-75
2023/01/17 08:36:44;;;;;;;9.43;5.53;;;;;;;;;;5038431;28;20270;-73
2023/01/17 08:39:11;;;;;;;8.75;5.22;;;;;;;;;;5019164;28;20030;-73
2023/01/17 08:41:37;;;;;;;11.15;5.90;;;;;;;;;;5021580;28;20025;-74
2023/01/17 08:44:02;;;;;;;8.55;5.15;;;;;;;;;;5017417;28;20420;-74
2023/01/17 08:46:28;;;;;;;8.48;5.03;;;;;;;;;;5013842;28;20018;-73
2023/01/17 08:48:54;;;;;;;9.60;5.17;;;;;;;;;;5032807;28;20038;-73
2023/01/17 08:51:20;;;;;;;10.85;5.53;;;;;;;;;;5023125;28;20037;-74
2023/01/17 08:53:45;;;;;;;8.07;4.70;;;;;;;;;;5026663;28;20442;-72
2023/01/17 08:56:10;;;;;;;9.07;4.88;;;;;;;;;;5024832;28;20101;-73
2023/01/17 08:58:36;;;;;;;7.40;4.50;;;;;;;;;;4998301;28;20124;-73
2023/01/17 09:01:01;;;;;;;7.17;4.60;;;;;;;;;;5011128;28;20271;-73
2023/01/17 09:03:27;;;;;;;6.95;3.63;;;;;;;;;;5019467;28;20017;-74
2023/01/17 09:06:09;;;;;;;5.82;3.38;;;;;;;;;;5022585;28;20034;-74
2023/01/17 09:08:34;;;;;;;6.40;3.58;;;;;;;;;;5014907;28;20037;-74
2023/01/17 09:11:06;;;;;;;3.78;2.83;;;;;;;;;;5019560;28;20403;-74
2023/01/17 09:13:32;;;;;;;7.10;2.75;;;;;;;;;;5019807;28;20390;-73
2023/01/17 09:15:57;;;;;;;5.57;2.70;;;;;;;;;;5019095;28;20022;-74
2023/01/17 09:18:23;;;;;;;4.47;2.50;;;;;;;;;;5019374;28;20105;-74
2023/01/17 09:20:49;;;;;;;5.47;2.20;;;;;;;;;;5022980;28;20101;-73
2023/01/17 09:23:14;;;;;;;3.80;1.90;;;;;;;;;;5011847;28;20112;-74
2023/01/17 09:25:43;;;;;;;3.53;2.20;;;;;;;;;;5033326;28;20048;-74
2023/01/17 09:28:08;;;;;;;2.85;1.48;;;;;;;;;;5020506;28;20071;-74
2023/01/17 09:30:33;;;;;;;4.57;2.15;;;;;;;;;;5022402;28;20492;-74
2023/01/17 09:32:59;;;;;;;4.77;2.00;;;;;;;;;;5016413;28;20042;-74
2023/01/17 09:35:24;;;;;;;3.93;2.33;;;;;;;;;;5017003;28;20437;-74
2023/01/17 09:37:50;;;;;;;2.80;1.70;;;;;;;;;;5006850;28;20275;-72
2023/01/17 09:40:21;;;;;;;6.45;1.95;;;;;;;;;;5018036;28;20321;-73
2023/01/17 09:42:49;;;;;;;3.42;1.40;;;;;;;;;;5004739;28;20040;-73
2023/01/17 09:45:16;;;;;;;3.80;1.90;;;;;;;;;;5035484;28;20029;-74
2023/01/17 09:47:43;;;;;;;2.42;1.50;;;;;;;;;;5019393;28;20519;-74
2023/01/17 09:50:28;;;;;;;3.50;2.40;;;;;;;;;;5008231;28;20175;-74
2023/01/17 09:52:59;;;;;;;4.60;2.22;;;;;;;;;;5023934;28;20021;-74
2023/01/17 09:55:25;;;;;;;5.80;2.38;;;;;;;;;;5014444;28;20056;-74
2023/01/17 09:58:26;;;;;;;3.42;1.70;;;;;;;;;;5036239;28;20113;-74
2023/01/17 10:00:54;;;;;;;4.72;1.80;;;;;;;;;;4968638;28;20064;-74
2023/01/17 10:03:26;;;;;;;2.00;1.45;;;;;;;;;;4983059;28;20459;-74
2023/01/17 10:05:57;;;;;;;2.75;1.63;;;;;;;;;;4963420;28;20030;-74
2023/01/17 10:08:28;;;;;;;3.22;1.88;;;;;;;;;;4976268;28;20597;-74
2023/01/17 10:11:02;;;;;;;4.03;1.60;;;;;;;;;;4983976;28;20030;-74
2023/01/17 10:13:46;;;;;;;5.95;1.85;;;;;;;;;;4983755;28;20524;-74
2023/01/17 10:16:17;;;;;;;3.60;1.80;;;;;;;;;;5001138;28;20038;-74
2023/01/17 10:18:57;;;;;;;4.25;2.13;;;;;;;;;;4987190;28;20491;-74
2023/01/17 10:21:26;;;;;;;3.03;1.90;;;;;;;;;;4999992;28;20084;-74
2023/01/17 10:23:51;;;;;;;4.32;2.05;;;;;;;;;;4983059;28;20066;-73
2023/01/17 10:26:19;;;;;;;3.00;1.90;;;;;;;;;;4982092;28;20268;-74
2023/01/17 10:28:49;;;;;;;3.03;1.98;;;;;;;;;;4999677;28;20042;-74
2023/01/17 10:31:22;;;;;;;3.15;1.67;;;;;;;;;;4983972;28;20065;-74
2023/01/17 10:33:50;;;;;;;3.13;1.55;;;;;;;;;;4986751;28;20038;-74
2023/01/17 10:36:21;;;;;;;3.55;1.70;;;;;;;;;;5033806;28;20488;-74
2023/01/17 10:38:49;;;;;;;2.55;1.70;;;;;;;;;;5023472;28;20071;-73
2023/01/17 10:41:18;;;;;;;3.50;1.70;;;;;;;;;;5014517;28;20026;-73
2023/01/17 10:43:49;;;;;;;2.33;1.40;;;;;;;;;;5020862;28;20435;-73
2023/01/17 10:46:34;;;;;;;2.63;1.60;;;;;;;;;;5021791;28;20942;-73
2023/01/17 10:49:01;;;;;;;4.10;1.45;;;;;;;;;;5003382;28;20129;-73
2023/01/17 10:51:51;;;;;;;2.08;1.40;;;;;;;;;;5032049;28;20396;-73
2023/01/17 10:54:34;;;;;;;4.65;1.70;;;;;;;;;;5027768;28;20025;-72
2023/01/17 10:56:59;;;;;;;2.92;1.80;;;;;;;;;;5040764;28;20383;-73
2023/01/17 10:59:30;;;;;;;2.75;1.20;;;;;;;;;;5014685;28;20026;-73
2023/01/17 11:01:55;;;;;;;2.58;1.40;;;;;;;;;;5019866;28;20026;-74
2023/01/17 11:04:28;;;;;;;2.20;1.50;;;;;;;;;;5027694;28;20032;-74
2023/01/17 11:07:14;;;;;;;2.70;1.60;;;;;;;;;;5025678;28;20026;-73
2023/01/17 11:09:43;;;;;;;2.05;1.23;;;;;;;;;;5027279;28;20030;-73
2023/01/17 11:12:31;;;;;;;1.73;1.40;;;;;;;;;;5021485;28;20049;-73
2023/01/17 11:15:00;;;;;;;2.93;1.27;;;;;;;;;;5016201;28;20037;-72
2023/01/17 11:17:26;;;;;;;3.05;1.65;;;;;;;;;;5043406;28;20021;-73
2023/01/17 11:19:53;;;;;;;3.58;1.48;;;;;;;;;;5017576;28;20029;-73
2023/01/17 11:22:19;;;;;;;1.67;1.20;;;;;;;;;;5028191;28;20022;-73
2023/01/17 11:24:49;;;;;;;1.40;1.10;;;;;;;;;;5016310;28;20049;-72
2023/01/17 11:27:24;;;;;;;1.20;1.10;;;;;;;;;;5039778;28;20404;-73
2023/01/17 11:30:00;;;;;;;2.03;1.23;;;;;;;;;;5038959;28;20484;-72
2023/01/17 11:32:28;;;;;;;2.10;1.55;;;;;;;;;;5022322;28;20399;-73
2023/01/17 11:35:06;;;;;;;2.65;1.63;;;;;;;;;;5016786;28;20029;-72
2023/01/17 11:37:32;;;;;;;2.50;1.70;;;;;;;;;;5018126;28;20037;-72
2023/01/17 11:40:08;;;;;;;2.30;1.60;;;;;;;;;;5021965;28;20033;-73
2023/01/17 11:42:36;;;;;;;3.10;2.00;;;;;;;;;;4999666;28;20585;-73
2023/01/17 11:45:20;;;;;;;3.90;1.77;;;;;;;;;;5024790;28;20415;-73
2023/01/17 11:47:46;;;;;;;2.75;1.90;;;;;;;;;;5025951;28;20128;-73
2023/01/17 11:50:22;;;;;;;2.67;1.90;;;;;;;;;;5020994;28;20539;-73
2023/01/17 11:52:47;;;;;;;3.10;2.10;;;;;;;;;;5025560;28;20387;-73
2023/01/17 11:55:14;;;;;;;2.08;1.70;;;;;;;;;;5024938;28;20022;-72
2023/01/17 11:57:39;;;;;;;2.85;1.83;;;;;;;;;;5021981;28;20107;-73
2023/01/17 12:00:04;;;;;;;3.70;2.10;;;;;;;;;;5008806;28;20029;-73
2023/01/17 12:02:46;;;;;;;4.77;2.30;;;;;;;;;;5024595;28;20040;-73
2023/01/17 12:05:30;;;;;;;2.78;2.33;;;;;;;;;;5008185;28;20686;-73
2023/01/17 12:08:14;;;;;;;4.50;1.88;;;;;;;;;;5028694;28;20022;-73
2023/01/17 12:10:39;;;;;;;3.58;2.35;;;;;;;;;;5022577;28;20435;-73
2023/01/17 12:16:31;;;;;;;3.92;2.60;;;;;;;;;;5025020;28;20087;-67
2023/01/17 12:19:15;;;;;;;3.40;2.47;;;;;;;;;;5023862;28;20430;-66
2023/01/17 12:21:40;;;;;;;3.28;2.47;;;;;;;;;;5022307;28;20025;-67
2023/01/17 12:24:24;;;;;;;3.97;2.50;;;;;;;;;;5010897;28;20025;-67
2023/01/17 12:27:12;;;;;;;5.07;2.70;;;;;;;;;;5026821;28;20291;-66
2023/01/17 12:29:42;;;;;;;4.65;2.80;;;;;;;;;;5027783;28;20037;-67
2023/01/17 12:32:07;;;;;;;7.20;3.65;;;;;;;;;;5027371;28;20029;-66
2023/01/17 12:34:42;;;;;;;10.37;4.40;;;;;;;;;;5010324;28;20506;-67
2023/01/17 12:37:22;;;;;;;7.97;5.43;;;;;;;;;;5029475;28;20025;-67
2023/01/17 12:40:00;;;;;;;5.82;4.25;;;;;;;;;;5007612;28;20506;-67
2023/01/17 12:42:29;;;;;;;9.35;3.40;;;;;;;;;;5027101;28;20372;-66
2023/01/17 12:45:06;;;;;;;5.00;3.33;;;;;;;;;;5024702;28;20029;-67
2023/01/17 12:47:32;;;;;;;4.38;3.20;;;;;;;;;;5028195;28;20497;-66
2023/01/17 12:50:17;;;;;;;3.70;2.72;;;;;;;;;;5020133;28;20033;-65
2023/01/17 12:52:50;;;;;;;4.93;3.17;;;;;;;;;;5025119;28;20029;-66
2023/01/17 12:55:19;;;;;;;3.70;2.78;;;;;;;;;;5026726;28;20017;-67
2023/01/17 12:57:46;;;;;;;4.00;2.80;;;;;;;;;;5026004;28;20581;-67
2023/01/17 13:00:18;;;;;;;4.85;2.72;;;;;;;;;;5027584;28;20041;-67
2023/01/17 13:02:46;;;;;;;3.70;2.72;;;;;;;;;;5015842;28;20030;-66
2023/01/17 13:05:35;;;;;;;3.83;2.90;;;;;;;;;;5025638;28;20043;-66
2023/01/17 13:08:06;;;;;;;6.30;3.25;;;;;;;;;;5029203;28;20037;-67
2023/01/17 13:10:40;;;;;;;4.20;3.10;;;;;;;;;;5026303;28;20040;-67
2023/01/17 13:13:15;;;;;;;4.72;2.90;;;;;;;;;;5020261;28;20057;-65
2023/01/17 13:15:41;;;;;;;5.25;2.90;;;;;;;;;;5024674;28;20139;-67
2023/01/17 13:18:14;;;;;;;3.80;2.80;;;;;;;;;;5010733;28;20030;-68
2023/01/17 13:20:45;;;;;;;3.50;2.40;;;;;;;;;;5026495;28;20116;-67
2023/01/17 13:23:29;;;;;;;4.65;2.78;;;;;;;;;;5024275;28;20040;-67
2023/01/17 13:25:56;;;;;;;5.20;2.85;;;;;;;;;;5026032;28;20112;-66
2023/01/17 13:28:21;;;;;;;4.50;2.80;;;;;;;;;;5024750;28;20060;-66
2023/01/17 13:30:49;;;;;;;4.07;2.80;;;;;;;;;;5015527;28;20509;-68
2023/01/17 13:33:18;;;;;;;3.72;2.47;;;;;;;;;;5031024;28;20052;-67
2023/01/17 13:35:58;;;;;;;3.33;2.47;;;;;;;;;;5019747;28;20051;-66
2023/01/17 13:38:33;;;;;;;4.63;2.58;;;;;;;;;;5016046;28;20034;-67
2023/01/17 13:41:01;;;;;;;3.55;2.42;;;;;;;;;;5017815;28;20040;-67
2023/01/17 13:43:32;;;;;;;3.75;2.17;;;;;;;;;;5023105;28;20032;-67
2023/01/17 13:46:00;;;;;;;5.13;2.50;;;;;;;;;;5025449;28;20052;-66
2023/01/17 13:48:29;;;;;;;3.20;2.28;;;;;;;;;;5020798;28;20092;-67
2023/01/17 13:50:54;;;;;;;;;;;;;;;;;;5026057;28;20026;-67
2023/01/17 13:53:26;;;;;;;3.67;2.30;;;;;;;;;;5022548;28;19921;-67
2023/01/17 13:55:52;;;;;;;3.47;2.50;;;;;;;;;;5020364;28;20749;-69
2023/01/17 13:59:01;;;;;;;3.10;2.25;;;;;;;;;;5027827;28;20041;-67
2023/01/17 14:01:29;;;;;;;3.97;2.53;;;;;;;;;;5016064;28;20034;-68
2023/01/17 14:03:55;;;;;;;3.85;2.63;;;;;;;;;;5021881;28;20112;-68
2023/01/17 14:06:43;;;;;;;3.90;2.80;;;;;;;;;;5027089;28;20029;-69
2023/01/17 14:09:11;;;;;;;3.27;2.13;;;;;;;;;;5017319;28;20294;-69
2023/01/17 14:11:55;;;;;;;4.60;2.95;;;;;;;;;;5020619;28;20459;-69
2023/01/17 14:14:42;;;;;;;8.30;2.60;;;;;;;;;;5033139;28;20037;-68
2023/01/17 14:17:17;;;;;;;4.07;2.92;;;;;;;;;;5027733;28;20021;-68
2023/01/17 14:19:43;;;;;;;3.53;2.53;;;;;;;;;;5022560;28;20022;-69
2023/01/17 14:22:28;;;;;;;8.68;3.13;;;;;;;;;;5024796;28;20029;-68
2023/01/17 14:25:16;;;;;;;6.22;2.97;;;;;;;;;;5023950;28;20029;-67
2023/01/17 14:27:41;;;;;;;5.93;3.40;;;;;;;;;;5025202;28;20030;-67
2023/01/17 14:30:16;;;;;;;5.00;3.43;;;;;;;;;;5027376;28;20040;-69
2023/01/17 14:32:42;;;;;;;7.93;5.07;;;;;;;;;;5027991;28;20432;-68
2023/01/17 14:35:20;;;;;;;8.02;5.10;;;;;;;;;;5027963;28;20098;-68
2023/01/17 14:37:49;;;;;;;9.07;5.00;;;;;;;;;;5022514;28;20064;-67
2023/01/17 14:40:19;;;;;;;7.47;4.80;;;;;;;;;;5027181;28;20083;-67
2023/01/17 14:42:46;;;;;;;7.63;4.90;;;;;;;;;;5030419;28;20032;-68
2023/01/17 14:45:13;;;;;;;8.07;4.15;;;;;;;;;;5023509;28;20092;-69
2023/01/17 14:47:42;;;;;;;6.78;4.00;;;;;;;;;;5025311;28;20112;-67
2023/01/17 14:50:16;;;;;;;8.15;4.35;;;;;;;;;;5029130;28;20462;-67
2023/01/17 14:52:43;;;;;;;6.15;3.00;;;;;;;;;;5045536;28;20140;-67
2023/01/17 14:55:16;;;;;;;4.63;2.60;;;;;;;;;;5027540;28;20029;-69
2023/01/17 14:57:42;;;;;;;4.18;2.90;;;;;;;;;;5023558;28;20183;-70
2023/01/17 15:00:12;;;;;;;6.00;2.70;;;;;;;;;;5025659;28;20025;-69
2023/01/17 15:02:42;;;;;;;7.47;2.53;;;;;;;;;;5030723;28;20815;-68
2023/01/17 15:05:10;;;;;;;5.93;2.70;;;;;;;;;;5024438;28;20034;-68
2023/01/17 15:07:35;;;;;;;5.55;3.25;;;;;;;;;;5028415;28;20029;-69
2023/01/17 15:10:02;;;;;;;5.75;2.97;;;;;;;;;;5010290;28;20040;-69
2023/01/17 15:12:27;;;;;;;4.82;3.08;;;;;;;;;;5022092;28;20045;-70
2023/01/17 15:14:57;;;;;;;4.13;2.83;;;;;;;;;;5023740;28;20029;-68
2023/01/17 15:19:19;;;;;;;3.47;2.47;;;;;;;;;;5095247;27;20429;-66
2023/01/17 15:21:45;;;;;;;3.38;2.30;;;;;;;;;;5062579;28;20160;-66
2023/01/17 15:24:21;;;;;;;4.28;2.20;;;;;;;;;;5071971;28;20386;-67
2023/01/17 15:26:47;;;;;;;3.75;2.10;;;;;;;;;;5069763;28;20478;-67
2023/01/17 15:29:21;;;;;;;4.60;2.72;;;;;;;;;;5060331;28;20077;-67
2023/01/17 15:31:52;;;;;;;6.65;3.05;;;;;;;;;;5078132;28;20028;-67
2023/01/17 15:34:23;;;;;;;6.32;3.78;;;;;;;;;;5072113;28;20025;-66
2023/01/17 15:36:48;;;;;;;9.75;4.05;;;;;;;;;;5068164;28;20056;-67
2023/01/17 15:39:17;;;;;;;6.70;3.20;;;;;;;;;;5071371;28;20451;-65
2023/01/17 15:41:43;;;;;;;7.18;3.33;;;;;;;;;;5075550;28;20149;-67
2023/01/17 15:44:20;;;;;;;4.97;2.58;;;;;;;;;;5070288;28;20115;-66
2023/01/17 15:46:46;;;;;;;3.90;2.20;;;;;;;;;;5074177;28;20663;-67
2023/01/17 15:49:22;;;;;;;5.75;3.05;;;;;;;;;;5072396;28;20025;-68
2023/01/17 15:51:52;;;;;;;4.65;3.20;;;;;;;;;;5071748;28;20029;-68
2023/01/17 15:54:30;;;;;;;8.27;4.57;;;;;;;;;;5080449;28;20028;-68
2023/01/17 15:57:06;;;;;;;8.30;4.70;;;;;;;;;;5075362;28;20024;-67
2023/01/17 15:59:37;;;;;;;11.40;5.28;;;;;;;;;;5076068;28;20103;-67
2023/01/17 16:02:02;;;;;;;9.75;4.70;;;;;;;;;;5060814;28;20028;-68
2023/01/17 16:04:35;;;;;;;8.68;4.30;;;;;;;;;;5074637;28;20040;-67
2023/01/17 16:07:08;;;;;;;8.73;3.92;;;;;;;;;;5057882;28;20025;-67
2023/01/17 16:09:40;;;;;;;9.35;4.78;;;;;;;;;;5075138;28;20024;-67
2023/01/17 16:12:05;;;;;;;8.57;4.93;;;;;;;;;;5078289;28;20031;-67
2023/01/17 16:14:31;;;;;;;9.27;4.90;;;;;;;;;;5073348;28;20091;-67
2023/01/17 16:16:57;;;;;;;9.53;5.20;;;;;;;;;;5079521;28;20027;-67
2023/01/17 16:19:23;;;;;;;12.80;5.63;;;;;;;;;;5072667;28;20305;-68